createdAt,value
2023-02-27T00:02:16.180Z,15.30
2023-02-27T00:05:19.612Z,15.24
2023-02-27T00:08:22.852Z,15.18
2023-02-27T00:11:25.152Z,15.15
2023-02-27T00:14:27.739Z,15.05
2023-02-27T00:17:30.675Z,15.14
2023-02-27T00:20:37.949Z,15.12
2023-02-27T00:23:39.990Z,15.03
2023-02-27T00:26:42.250Z,14.99
2023-02-27T00:29:44.266Z,15.06
2023-02-27T00:32:47.192Z,15.06
2023-02-27T00:36:00.085Z,14.94
2023-02-27T00:39:03.053Z,14.99
2023-02-27T00:42:05.066Z,14.95
2023-02-27T00:45:08.038Z,14.92
2023-02-27T00:48:10.284Z,14.78
2023-02-27T00:51:13.409Z,14.80
2023-02-27T00:54:15.554Z,14.80
2023-02-27T00:57:17.810Z,14.64
2023-02-27T01:00:19.950Z,14.68
2023-02-27T01:03:22.111Z,14.62
2023-02-27T01:06:24.233Z,14.56
2023-02-27T01:09:26.264Z,14.50
2023-02-27T01:12:28.429Z,14.44
2023-02-27T01:15:30.507Z,14.37
2023-02-27T01:18:32.472Z,14.37
2023-02-27T01:21:34.733Z,14.26
2023-02-27T01:24:36.790Z,14.08
2023-02-27T01:27:38.787Z,14.08
2023-02-27T01:30:42.074Z,14.04
2023-02-27T01:33:44.160Z,13.95
2023-02-27T01:36:46.194Z,13.80
2023-02-27T01:39:51.172Z,13.74
2023-02-27T01:42:53.115Z,13.75
2023-02-27T01:45:55.655Z,13.74
2023-02-27T01:49:25.935Z,13.87
2023-02-27T01:52:29.368Z,13.90
2023-02-27T01:55:37.983Z,13.79
2023-02-27T01:58:41.784Z,13.79
2023-02-27T02:01:44.043Z,13.92
2023-02-27T02:04:47.005Z,13.91
2023-02-27T02:07:50.408Z,13.85
2023-02-27T02:10:54.637Z,13.63
2023-02-27T02:13:59.170Z,13.59
2023-02-27T02:17:20.081Z,13.63
2023-02-27T02:20:30.826Z,13.82
2023-02-27T02:23:50.742Z,13.85
2023-02-27T02:26:58.376Z,13.77
2023-02-27T02:30:05.965Z,13.91
2023-02-27T02:33:37.998Z,13.87
2023-02-27T02:36:42.977Z,13.86
2023-02-27T02:39:53.759Z,13.95
2023-02-27T02:43:21.389Z,14.01
2023-02-27T02:47:02.124Z,14.11
2023-02-27T02:50:16.127Z,13.96
2023-02-27T02:53:25.059Z,14.05
2023-02-27T02:56:38.004Z,13.98
2023-02-27T03:00:12.880Z,14.01
2023-02-27T03:03:37.022Z,13.83
2023-02-27T03:06:45.180Z,13.74
2023-02-27T03:09:57.538Z,13.63
2023-02-27T03:13:05.452Z,13.73
2023-02-27T03:16:14.740Z,13.81
2023-02-27T03:19:25.683Z,13.74
2023-02-27T03:22:35.677Z,13.70
2023-02-27T03:25:39.164Z,13.75
2023-02-27T03:28:52.478Z,13.76
2023-02-27T03:32:05.074Z,13.80
2023-02-27T03:35:08.130Z,13.93
2023-02-27T03:38:23.082Z,14.01
2023-02-27T03:41:35.238Z,13.98
2023-02-27T03:45:00.726Z,13.89
2023-02-27T03:48:04.312Z,14.00
2023-02-27T03:51:06.421Z,13.89
2023-02-27T03:54:20.910Z,13.72
2023-02-27T03:57:23.025Z,13.55
2023-02-27T04:00:26.804Z,13.53
2023-02-27T04:03:30.613Z,13.61
2023-02-27T04:06:53.057Z,13.58
2023-02-27T04:10:17.761Z,13.53
2023-02-27T04:13:51.918Z,13.67
2023-02-27T04:17:16.501Z,13.49
2023-02-27T04:20:33.933Z,13.45
2023-02-27T04:23:51.196Z,13.59
2023-02-27T04:26:58.999Z,13.72
2023-02-27T04:30:34.555Z,13.85
2023-02-27T04:33:42.358Z,13.76
2023-02-27T04:36:59.502Z,13.90
2023-02-27T04:40:07.948Z,13.81
2023-02-27T04:43:15.021Z,13.59
2023-02-27T04:46:20.613Z,13.45
2023-02-27T04:49:31.483Z,13.84
2023-02-27T04:52:40.899Z,13.75
2023-02-27T04:55:48.138Z,13.65
2023-02-27T04:58:55.274Z,13.84
2023-02-27T05:02:02.128Z,13.76
2023-02-27T05:05:11.162Z,13.74
2023-02-27T05:08:22.881Z,13.75
2023-02-27T05:11:43.926Z,13.79
2023-02-27T05:14:53.005Z,13.84
2023-02-27T05:18:04.621Z,13.74
2023-02-27T05:21:28.339Z,13.79
2023-02-27T05:24:37.365Z,13.80
2023-02-27T05:27:59.360Z,14.42
2023-02-27T05:31:14.614Z,14.48
2023-02-27T05:34:16.652Z,14.32
2023-02-27T05:37:25.463Z,14.02
2023-02-27T05:40:36.288Z,13.82
2023-02-27T05:43:44.522Z,14.09
2023-02-27T05:46:49.897Z,14.46
2023-02-27T05:49:57.367Z,15.13
2023-02-27T05:53:03.968Z,15.27
2023-02-27T05:56:08.575Z,15.33
2023-02-27T05:59:17.689Z,15.11
2023-02-27T06:02:19.953Z,14.34
2023-02-27T06:05:23.178Z,14.15
2023-02-27T06:08:25.765Z,14.02
2023-02-27T06:11:27.773Z,13.69
2023-02-27T06:14:29.871Z,13.72
2023-02-27T06:17:31.862Z,13.81
2023-02-27T06:20:34.506Z,14.07
2023-02-27T06:23:36.514Z,14.24
2023-02-27T06:26:38.442Z,15.26
2023-02-27T06:29:40.644Z,16.03
2023-02-27T06:32:42.969Z,17.28
2023-02-27T06:35:47.635Z,17.24
2023-02-27T06:38:49.686Z,16.61
2023-02-27T06:41:51.828Z,17.17
2023-02-27T06:44:53.984Z,17.37
2023-02-27T06:47:56.033Z,17.08
2023-02-27T06:50:58.288Z,17.18
2023-02-27T06:54:00.181Z,18.01
2023-02-27T06:57:02.157Z,18.15
2023-02-27T07:00:07.269Z,18.41
2023-02-27T07:03:10.269Z,19.05
2023-02-27T07:06:12.729Z,19.09
2023-02-27T07:09:17.036Z,18.89
2023-02-27T07:12:21.193Z,18.35
2023-02-27T07:15:23.386Z,19.23
2023-02-27T07:18:25.765Z,18.76
2023-02-27T07:21:27.894Z,17.82
2023-02-27T07:24:29.847Z,18.31
2023-02-27T07:27:32.965Z,18.53
2023-02-27T07:30:35.032Z,18.05
2023-02-27T07:33:37.251Z,18.63
2023-02-27T07:36:39.509Z,19.37
2023-02-27T07:39:41.589Z,18.94
2023-02-27T07:42:43.869Z,18.41
2023-02-27T07:45:46.664Z,19.32
2023-02-27T07:48:48.721Z,18.96
2023-02-27T07:51:50.982Z,18.37
2023-02-27T07:54:53.061Z,19.00
2023-02-27T07:57:55.115Z,18.97
2023-02-27T08:00:57.208Z,18.29
2023-02-27T08:03:59.168Z,18.72
2023-02-27T08:07:01.135Z,19.31
2023-02-27T08:10:06.693Z,18.70
2023-02-27T08:13:11.109Z,18.34
2023-02-27T08:16:14.819Z,19.38
2023-02-27T08:19:16.857Z,18.78
2023-02-27T08:22:18.848Z,18.47
2023-02-27T08:25:21.631Z,19.32
2023-02-27T08:28:23.827Z,18.91
2023-02-27T08:31:25.999Z,18.61
2023-02-27T08:34:28.524Z,19.23
2023-02-27T08:37:31.022Z,19.48
2023-02-27T08:40:33.097Z,19.42
2023-02-27T08:43:35.106Z,18.67
2023-02-27T08:46:37.138Z,20.21
2023-02-27T08:49:39.090Z,19.98
2023-02-27T08:52:41.347Z,19.06
2023-02-27T08:55:43.842Z,20.13
2023-02-27T08:58:45.815Z,20.28
2023-02-27T09:01:47.963Z,19.62
2023-02-27T09:04:50.022Z,20.31
2023-02-27T09:07:52.168Z,20.69
2023-02-27T09:10:57.770Z,20.44
2023-02-27T09:14:01.160Z,19.46
2023-02-27T09:17:03.671Z,20.86
2023-02-27T09:20:09.437Z,20.83
2023-02-27T09:23:11.839Z,19.90
2023-02-27T09:26:13.918Z,20.90
2023-02-27T09:29:16.107Z,20.62
2023-02-27T09:32:18.332Z,19.88
2023-02-27T09:35:20.880Z,19.66
2023-02-27T09:38:23.066Z,20.47
2023-02-27T09:41:52.674Z,20.38
2023-02-27T09:45:07.651Z,19.00
2023-02-27T09:48:28.863Z,19.10
2023-02-27T09:51:31.312Z,20.81
2023-02-27T09:54:34.446Z,20.48
2023-02-27T09:57:58.499Z,19.45
2023-02-27T10:01:22.153Z,20.78
2023-02-27T10:04:59.277Z,20.08
2023-02-27T10:08:17.121Z,19.47
2023-02-27T10:11:43.702Z,19.18
2023-02-27T10:15:26.887Z,20.66
2023-02-27T10:18:31.079Z,18.92
2023-02-27T10:21:42.290Z,18.74
2023-02-27T10:24:52.064Z,20.24
2023-02-27T10:27:57.250Z,20.72
2023-02-27T10:31:02.284Z,19.75
2023-02-27T10:34:04.504Z,18.99
2023-02-27T10:37:08.008Z,19.61
2023-02-27T10:40:15.444Z,19.38
2023-02-27T10:43:19.356Z,19.08
2023-02-27T10:46:35.505Z,19.18
2023-02-27T10:49:38.732Z,19.75
2023-02-27T10:53:02.448Z,18.89
2023-02-27T10:56:07.441Z,19.03
2023-02-27T10:59:20.518Z,19.54
2023-02-27T11:02:26.714Z,19.14
2023-02-27T11:05:30.375Z,19.08
2023-02-27T11:08:34.214Z,19.68
2023-02-27T11:11:38.176Z,19.74
2023-02-27T11:14:54.919Z,19.38
2023-02-27T11:18:28.760Z,18.95
2023-02-27T11:21:31.406Z,19.38
2023-02-27T11:24:34.344Z,19.59
2023-02-27T11:27:36.699Z,19.57
2023-02-27T11:30:39.799Z,19.75
2023-02-27T11:33:50.957Z,19.45
2023-02-27T11:37:30.934Z,19.66
2023-02-27T11:40:37.421Z,19.48
2023-02-27T11:43:51.204Z,19.23
2023-02-27T11:47:14.018Z,18.39
2023-02-27T11:50:42.010Z,18.05
2023-02-27T11:54:05.724Z,18.21
2023-02-27T11:57:25.746Z,17.33
2023-02-27T12:00:33.962Z,18.76
2023-02-27T12:03:54.690Z,20.13
2023-02-27T12:07:06.042Z,20.53
2023-02-27T12:10:18.198Z,21.16
2023-02-27T12:13:29.308Z,20.77
2023-02-27T12:16:42.472Z,20.70
2023-02-27T12:19:55.943Z,21.23
2023-02-27T12:22:58.464Z,20.67
2023-02-27T12:26:07.842Z,20.02
2023-02-27T12:29:19.307Z,21.36
2023-02-27T12:32:43.178Z,20.63
2023-02-27T12:35:51.041Z,20.39
2023-02-27T12:38:53.706Z,21.21
2023-02-27T12:42:06.029Z,20.16
2023-02-27T12:45:35.178Z,20.90
2023-02-27T12:49:25.341Z,20.40
2023-02-27T12:52:48.812Z,20.19
2023-02-27T12:56:19.020Z,21.29
2023-02-27T12:59:29.810Z,20.56
2023-02-27T13:03:15.253Z,20.82
2023-02-27T13:06:33.399Z,21.50
2023-02-27T13:09:38.016Z,20.19
2023-02-27T13:13:03.982Z,20.59
2023-02-27T13:16:36.513Z,21.25
2023-02-27T13:19:59.919Z,19.90
2023-02-27T13:23:19.991Z,20.23
2023-02-27T13:26:52.141Z,20.70
2023-02-27T13:30:20.879Z,20.30
2023-02-27T13:33:40.811Z,20.65
2023-02-27T13:37:01.547Z,20.42
2023-02-27T13:40:06.033Z,20.71
2023-02-27T13:43:52.208Z,21.37
2023-02-27T13:46:54.607Z,21.19
2023-02-27T13:49:58.871Z,21.09
2023-02-27T13:53:10.190Z,21.31
2023-02-27T13:56:22.424Z,20.87
2023-02-27T13:59:30.138Z,21.71
2023-02-27T14:02:58.198Z,21.94
2023-02-27T14:06:04.309Z,21.08
2023-02-27T14:09:15.354Z,21.99
2023-02-27T14:12:46.140Z,21.89
2023-02-27T14:15:54.384Z,21.25
2023-02-27T14:19:01.217Z,21.70
2023-02-27T14:22:11.981Z,21.08
2023-02-27T14:25:28.998Z,21.30
2023-02-27T14:28:45.570Z,21.74
2023-02-27T14:31:48.734Z,21.26
2023-02-27T14:34:57.693Z,21.59
2023-02-27T14:38:17.137Z,21.89
2023-02-27T14:41:51.764Z,20.76
2023-02-27T14:44:54.728Z,21.64
2023-02-27T14:47:57.748Z,21.76
2023-02-27T14:51:02.465Z,20.56
2023-02-27T14:54:15.116Z,21.77
2023-02-27T14:57:24.234Z,20.86
2023-02-27T15:00:34.174Z,20.46
2023-02-27T15:03:42.136Z,21.59
2023-02-27T15:06:48.030Z,21.14
2023-02-27T15:09:55.417Z,20.23
2023-02-27T15:13:01.020Z,21.22
2023-02-27T15:16:19.101Z,20.55
2023-02-27T15:19:25.752Z,19.91
2023-02-27T15:22:38.829Z,20.32
2023-02-27T15:25:42.921Z,20.89
2023-02-27T15:28:45.237Z,21.24
2023-02-27T15:31:48.215Z,21.25
2023-02-27T15:34:52.578Z,20.56
2023-02-27T15:37:57.441Z,20.34
2023-02-27T15:41:05.074Z,20.38
2023-02-27T15:44:07.633Z,19.81
2023-02-27T15:47:23.039Z,19.54
2023-02-27T15:50:28.677Z,19.28
2023-02-27T15:53:34.203Z,18.85
2023-02-27T15:56:38.978Z,18.52
2023-02-27T15:59:44.337Z,18.17
2023-02-27T16:02:50.377Z,18.11
2023-02-27T16:05:53.938Z,17.99
2023-02-27T16:09:28.666Z,18.05
2023-02-27T16:12:39.914Z,17.93
2023-02-27T16:15:42.093Z,17.84
2023-02-27T16:18:51.324Z,17.77
2023-02-27T16:22:16.326Z,17.88
2023-02-27T16:25:20.499Z,17.62
2023-02-27T16:28:24.016Z,17.33
2023-02-27T16:31:33.789Z,17.29
2023-02-27T16:34:45.551Z,17.14
2023-02-27T16:37:50.558Z,16.79
2023-02-27T16:40:53.842Z,17.09
2023-02-27T16:43:56.352Z,16.98
2023-02-27T16:47:02.237Z,16.68
2023-02-27T16:50:04.865Z,16.58
2023-02-27T16:53:08.134Z,16.28
2023-02-27T16:56:38.392Z,16.30
2023-02-27T16:59:41.228Z,16.11
2023-02-27T17:02:43.347Z,16.12
2023-02-27T17:06:02.482Z,15.94
2023-02-27T17:09:05.626Z,16.00
2023-02-27T17:12:07.766Z,15.91
2023-02-27T17:15:10.521Z,15.96
2023-02-27T17:18:12.624Z,15.91
2023-02-27T17:21:14.691Z,15.71
2023-02-27T17:24:16.854Z,15.77
2023-02-27T17:27:18.845Z,15.79
2023-02-27T17:30:22.715Z,15.60
2023-02-27T17:33:34.049Z,15.67
2023-02-27T17:36:36.502Z,15.65
2023-02-27T17:39:39.241Z,15.31
2023-02-27T17:42:41.501Z,15.23
2023-02-27T17:45:44.201Z,15.05
2023-02-27T17:48:51.045Z,14.93
2023-02-27T17:51:53.130Z,15.05
2023-02-27T17:54:55.859Z,15.15
2023-02-27T17:58:00.028Z,15.44
2023-02-27T18:01:07.134Z,15.46
2023-02-27T18:04:11.527Z,15.41
2023-02-27T18:07:13.907Z,15.62
2023-02-27T18:10:16.388Z,15.61
2023-02-27T18:13:21.961Z,15.69
2023-02-27T18:16:24.269Z,15.61
2023-02-27T18:19:27.096Z,15.54
2023-02-27T18:22:30.086Z,15.51
2023-02-27T18:25:36.407Z,15.29
2023-02-27T18:28:38.445Z,15.28
2023-02-27T18:31:44.916Z,15.42
2023-02-27T18:34:47.166Z,15.53
2023-02-27T18:37:49.258Z,15.52
2023-02-27T18:40:51.314Z,15.37
2023-02-27T18:43:54.149Z,15.45
2023-02-27T18:46:57.714Z,15.30
2023-02-27T18:50:00.174Z,15.37
2023-02-27T18:53:02.398Z,15.22
2023-02-27T18:56:07.570Z,15.13
2023-02-27T18:59:12.195Z,15.13
2023-02-27T19:02:16.827Z,15.02
2023-02-27T19:05:19.385Z,15.07
2023-02-27T19:08:21.534Z,15.00
2023-02-27T19:11:34.050Z,14.83
2023-02-27T19:14:36.545Z,14.88
2023-02-27T19:17:41.702Z,14.97
2023-02-27T19:20:43.973Z,14.88
2023-02-27T19:23:46.046Z,14.92
2023-02-27T19:26:48.931Z,15.00
2023-02-27T19:29:51.565Z,15.00
2023-02-27T19:32:55.054Z,14.95
2023-02-27T19:35:58.606Z,14.87
2023-02-27T19:39:02.081Z,14.83
2023-02-27T19:42:04.134Z,14.68
2023-02-27T19:45:06.989Z,14.92
2023-02-27T19:48:10.419Z,14.75
2023-02-27T19:51:14.629Z,14.76
2023-02-27T19:54:16.747Z,14.56
2023-02-27T19:57:20.525Z,14.59
2023-02-27T20:00:23.205Z,14.45
2023-02-27T20:03:26.170Z,14.46
2023-02-27T20:06:33.235Z,14.39
2023-02-27T20:09:35.326Z,14.38
2023-02-27T20:12:40.330Z,14.25
2023-02-27T20:15:42.438Z,14.28
2023-02-27T20:18:46.239Z,14.18
2023-02-27T20:21:51.297Z,14.06
2023-02-27T20:24:56.694Z,13.95
2023-02-27T20:27:59.025Z,13.94
2023-02-27T20:31:01.548Z,13.96
2023-02-27T20:34:06.224Z,14.00
2023-02-27T20:37:08.457Z,14.02
2023-02-27T20:40:11.113Z,13.85
2023-02-27T20:43:14.245Z,13.92
2023-02-27T20:46:22.032Z,14.01
2023-02-27T20:49:25.050Z,14.02
2023-02-27T20:52:27.460Z,14.16
2023-02-27T20:55:30.070Z,14.30
2023-02-27T20:58:37.271Z,13.85
2023-02-27T21:01:39.793Z,14.03
2023-02-27T21:04:47.460Z,14.20
2023-02-27T21:07:50.148Z,14.01
2023-02-27T21:10:52.998Z,13.84
2023-02-27T21:13:56.788Z,14.02
2023-02-27T21:17:03.726Z,13.93
2023-02-27T21:20:10.851Z,13.78
2023-02-27T21:23:13.012Z,13.83
2023-02-27T21:26:28.108Z,13.82
2023-02-27T21:29:30.333Z,13.82
2023-02-27T21:32:41.486Z,13.93
2023-02-27T21:35:49.740Z,13.97
2023-02-27T21:38:55.737Z,13.99
2023-02-27T21:41:59.731Z,14.02
2023-02-27T21:45:01.856Z,13.95
2023-02-27T21:48:06.140Z,14.09
2023-02-27T21:51:08.143Z,14.09
2023-02-27T21:54:13.645Z,13.83
2023-02-27T21:57:16.927Z,13.73
2023-02-27T22:00:20.128Z,13.81
2023-02-27T22:03:23.860Z,13.70
2023-02-27T22:06:29.289Z,13.61
2023-02-27T22:09:32.022Z,13.72
2023-02-27T22:12:34.146Z,13.69
2023-02-27T22:15:36.535Z,13.82
2023-02-27T22:18:40.671Z,13.81
2023-02-27T22:21:42.891Z,13.91
2023-02-27T22:24:46.115Z,13.85
2023-02-27T22:27:49.233Z,13.85
2023-02-27T22:30:51.256Z,14.11
2023-02-27T22:33:55.684Z,14.11
2023-02-27T22:36:58.173Z,13.96
2023-02-27T22:40:00.241Z,13.62
2023-02-27T22:43:02.275Z,13.83
2023-02-27T22:46:04.758Z,13.89
2023-02-27T22:49:21.915Z,13.81
2023-02-27T22:52:25.517Z,13.78
2023-02-27T22:55:28.730Z,13.78
2023-02-27T22:58:36.055Z,13.64
2023-02-27T23:01:38.728Z,13.86
2023-02-27T23:04:40.795Z,13.99
2023-02-27T23:07:43.865Z,13.86
2023-02-27T23:10:47.002Z,13.89
2023-02-27T23:13:49.940Z,13.85
2023-02-27T23:16:51.995Z,14.01
2023-02-27T23:19:55.184Z,14.07
2023-02-27T23:22:57.555Z,13.94
2023-02-27T23:26:01.965Z,13.56
2023-02-27T23:29:04.862Z,13.72
2023-02-27T23:32:07.144Z,13.74
2023-02-27T23:35:12.710Z,13.80
2023-02-27T23:38:14.762Z,13.87
2023-02-27T23:41:17.981Z,13.80
2023-02-27T23:44:40.270Z,13.79
2023-02-27T23:47:43.228Z,13.79
2023-02-27T23:50:45.377Z,13.76
2023-02-27T23:53:47.925Z,13.69
2023-02-27T23:56:49.915Z,13.71
2023-02-27T23:59:51.906Z,13.82
